Main page
METAR-TAF:

METAR-TAF

Airports :

Ivato International Airport

Antananarivo, Madagascar

latitude: 18-48S, longitude: 047-29E, elevation: 1279 m

Current weather observation

The report was made 1 hour and 6 minutes ago, at 21:30 UTC
Wind 6 kt from the Southeast, varying between East and South
Temperature 14°C
Humidity 94%
Pressure 1025 hPa
Visibility 10 km or more
Few clouds at a height of 2000 ft

METAR: FMMI 192130Z 13006KT 100V170 9999 FEW020 14/13 Q1025 NOSIG

Time: 01:36 (22:36 UTC)

Forecast

The report was made 5 hours and 36 minutes ago, at 17:00 UTC
Forecast valid from 19 at 18 UTC to 20 at 24 UTC
Wind 6 kt from the East/Southeast
Visibility 10 km or more
Few clouds at a height of 2000 ft
Probability 30%
from 20 at 02 UTC to 20 at 05 UTC
Visibility: 2000 m
mist,

TAF: FMMI 191700Z 1918/2024 12006KT 9999 FEW020 PROB30 2002/2005 2000 BR

Weather observations and forecasts of more than 4000 airports (METAR and TAF reports).

The available stations are represented by yellow and red dots on the map.

Hover mouse over dot to see the name of the station.

Then click to see weather observations and forecasts.

To change the map : click on the green buttons with a black cross to zoom in, on the green button with a dash to zoom out, or on the green arrows for adjacent maps.


METAR-TAF: